Time;durP1;ratioP1;P1;durP2;ratioP2;P2;SDS_P1;SDS_P2;PMS_P1;PMS_P2;Temp;Humidity;BMP_temperature;BMP_pressure;BME280_temperature;BME280_humidity;BME280_pressure;Samples;Min_cycle;Max_cycle;Signal;HPM_P1;HPM_P2
2021/05/07 00:01:56;;;;;;;0.10;0.10;;;10.60;69.80;;;;;;5034765;28;20049;-69
2021/05/07 00:04:22;;;;;;;0.28;0.28;;;10.60;69.80;;;;;;5034225;28;20459;-69
2021/05/07 00:06:52;;;;;;;0.20;0.20;;;10.60;69.90;;;;;;5033823;28;20052;-70
2021/05/07 00:09:19;;;;;;;0.17;0.17;;;10.60;69.90;;;;;;5034669;28;20053;-70
2021/05/07 00:11:46;;;;;;;0.30;0.30;;;10.60;69.80;;;;;;5034309;28;20069;-70
2021/05/07 00:14:13;;;;;;;0.20;0.20;;;10.60;69.70;;;;;;5034537;28;20053;-70
2021/05/07 00:16:39;;;;;;;0.20;0.20;;;10.60;69.70;;;;;;5034054;28;20100;-69
2021/05/07 00:19:06;;;;;;;0.22;0.22;;;10.50;69.60;;;;;;5034516;28;20110;-69
2021/05/07 00:21:34;;;;;;;0.22;0.22;;;10.50;69.50;;;;;;5034301;28;20191;-69
2021/05/07 00:24:01;;;;;;;0.20;0.20;;;10.50;69.60;;;;;;5033973;28;20073;-69
2021/05/07 00:26:27;;;;;;;0.20;0.20;;;10.40;69.60;;;;;;5029671;28;20041;-69
2021/05/07 00:28:54;;;;;;;0.30;0.30;;;10.40;69.60;;;;;;5030718;28;20069;-69
2021/05/07 00:31:20;;;;;;;0.20;0.20;;;10.40;69.60;;;;;;5034351;28;20125;-69
2021/05/07 00:33:46;;;;;;;0.20;0.20;;;10.40;69.70;;;;;;5034134;28;20049;-69
2021/05/07 00:36:13;;;;;;;0.30;0.30;;;10.40;69.60;;;;;;5034076;28;20065;-70
2021/05/07 00:38:39;;;;;;;0.20;0.20;;;10.40;69.60;;;;;;5034058;28;20421;-69
2021/05/07 00:41:05;;;;;;;0.20;0.20;;;10.40;69.60;;;;;;5033712;28;20084;-69
2021/05/07 00:43:31;;;;;;;0.30;0.30;;;10.40;69.60;;;;;;5034117;28;20132;-69
2021/05/07 00:45:58;;;;;;;0.32;0.20;;;10.40;69.60;;;;;;5033492;28;20636;-69
2021/05/07 00:48:25;;;;;;;0.20;0.20;;;10.30;69.50;;;;;;5029202;28;20132;-69
2021/05/07 00:50:52;;;;;;;0.20;0.20;;;10.30;69.60;;;;;;5029668;28;20081;-69
2021/05/07 00:53:21;;;;;;;0.20;0.20;;;10.30;69.60;;;;;;5033868;28;20144;-69
2021/05/07 00:55:47;;;;;;;0.22;0.20;;;10.30;69.70;;;;;;5033298;28;20052;-69
2021/05/07 00:58:14;;;;;;;0.20;0.20;;;10.30;69.70;;;;;;5033635;28;20049;-69
2021/05/07 01:00:40;;;;;;;0.30;0.30;;;10.20;69.70;;;;;;5033641;28;20054;-69
2021/05/07 01:03:07;;;;;;;0.10;0.10;;;10.20;69.60;;;;;;5048638;28;20077;-69
2021/05/07 01:05:34;;;;;;;0.28;0.28;;;10.20;69.60;;;;;;5032301;28;20414;-69
2021/05/07 01:08:00;;;;;;;0.20;0.20;;;10.10;69.70;;;;;;5033346;28;20087;-69
2021/05/07 01:10:27;;;;;;;0.20;0.20;;;10.10;69.70;;;;;;5033341;28;20120;-69
2021/05/07 01:12:53;;;;;;;0.20;0.20;;;10.10;69.80;;;;;;5033163;28;20045;-69
2021/05/07 01:15:22;;;;;;;0.30;0.30;;;10.10;69.80;;;;;;5021984;28;20050;-69
2021/05/07 01:17:54;;;;;;;0.52;0.30;;;10.10;69.90;;;;;;5032940;28;20497;-69
2021/05/07 01:20:32;;;;;;;0.43;0.20;;;10.00;69.90;;;;;;5032764;28;20131;-70
2021/05/07 01:23:00;;;;;;;0.30;0.30;;;10.00;69.90;;;;;;5047744;28;20645;-69
2021/05/07 01:25:29;;;;;;;0.40;0.35;;;10.00;70.00;;;;;;5032599;28;20042;-69
2021/05/07 01:27:59;;;;;;;0.30;0.30;;;9.90;70.10;;;;;;5032987;28;20081;-69
2021/05/07 01:30:29;;;;;;;0.28;0.28;;;9.90;70.20;;;;;;5032680;28;20146;-68
2021/05/07 01:32:56;;;;;;;0.33;0.33;;;9.90;70.20;;;;;;5032780;28;20053;-69
2021/05/07 01:35:28;;;;;;;0.20;0.20;;;9.80;70.40;;;;;;5031286;28;20128;-69
2021/05/07 01:38:01;;;;;;;0.10;0.10;;;9.80;70.40;;;;;;5032561;28;20084;-70
2021/05/07 01:40:29;;;;;;;0.30;0.30;;;9.80;70.40;;;;;;5032981;28;20089;-69
2021/05/07 01:42:55;;;;;;;0.30;0.30;;;9.80;70.40;;;;;;5032530;28;20079;-69
2021/05/07 01:45:33;;;;;;;0.20;0.20;;;9.80;70.40;;;;;;5032750;28;20167;-69
2021/05/07 01:48:00;;;;;;;0.30;0.30;;;9.80;70.40;;;;;;5032483;28;20124;-69
2021/05/07 01:50:28;;;;;;;0.10;0.10;;;9.80;70.40;;;;;;5032678;28;20102;-69
2021/05/07 01:52:55;;;;;;;0.38;0.38;;;9.80;70.40;;;;;;5031454;28;20056;-69
2021/05/07 01:55:28;;;;;;;0.20;0.20;;;9.70;70.30;;;;;;5032424;28;20124;-69
2021/05/07 01:57:56;;;;;;;0.20;0.20;;;9.70;70.30;;;;;;5032420;28;20052;-69
2021/05/07 02:00:25;;;;;;;0.30;0.30;;;9.70;70.40;;;;;;5032544;28;20505;-69
2021/05/07 02:02:53;;;;;;;0.10;0.10;;;9.70;70.30;;;;;;5031711;28;20056;-69
2021/05/07 02:05:20;;;;;;;0.85;0.40;;;9.70;70.30;;;;;;5032237;28;20565;-69
2021/05/07 02:07:47;;;;;;;0.30;0.30;;;9.70;70.30;;;;;;5031972;28;20132;-69
2021/05/07 02:10:18;;;;;;;0.30;0.30;;;9.70;70.40;;;;;;5018732;28;20042;-69
2021/05/07 02:12:45;;;;;;;0.32;0.32;;;9.70;70.60;;;;;;5032346;28;20172;-69
2021/05/07 02:15:14;;;;;;;0.35;0.35;;;9.60;70.70;;;;;;5032611;28;20635;-69
2021/05/07 02:17:41;;;;;;;0.30;0.30;;;9.60;70.60;;;;;;5032168;28;20128;-69
2021/05/07 02:20:10;;;;;;;0.30;0.30;;;9.60;70.60;;;;;;5031691;28;20117;-69
2021/05/07 02:22:36;;;;;;;0.20;0.20;;;9.60;70.70;;;;;;5031824;28;20060;-69
2021/05/07 02:25:03;;;;;;;0.40;0.40;;;9.60;70.80;;;;;;5031761;28;20053;-69
2021/05/07 02:27:30;;;;;;;0.20;0.20;;;9.60;70.80;;;;;;5032134;28;20172;-69
2021/05/07 02:29:56;;;;;;;0.28;0.28;;;9.50;70.80;;;;;;5031627;28;20093;-69
2021/05/07 02:32:23;;;;;;;0.30;0.30;;;9.50;70.80;;;;;;5031773;28;20118;-70
2021/05/07 02:34:49;;;;;;;0.30;0.20;;;9.50;70.90;;;;;;5032015;28;20132;-69
2021/05/07 02:37:15;;;;;;;0.22;0.22;;;9.50;70.90;;;;;;5031733;28;20051;-69
2021/05/07 02:39:41;;;;;;;0.20;0.20;;;9.50;70.90;;;;;;5032198;28;20125;-69
2021/05/07 02:42:08;;;;;;;0.25;0.25;;;9.60;71.00;;;;;;5031538;28;20095;-69
2021/05/07 02:44:34;;;;;;;0.20;0.20;;;9.50;70.90;;;;;;5031565;28;20081;-69
2021/05/07 02:47:04;;;;;;;0.45;0.32;;;9.60;70.90;;;;;;5031767;28;20088;-69
2021/05/07 02:49:32;;;;;;;0.35;0.30;;;9.60;70.90;;;;;;5031889;28;20045;-70
2021/05/07 02:51:58;;;;;;;0.40;0.40;;;9.50;70.90;;;;;;5031211;28;20501;-69
2021/05/07 02:54:25;;;;;;;0.38;0.30;;;9.50;70.90;;;;;;5031510;28;20463;-69
2021/05/07 02:56:51;;;;;;;0.40;0.40;;;9.50;71.20;;;;;;5031605;28;20128;-69
2021/05/07 02:59:17;;;;;;;0.50;0.50;;;9.40;71.20;;;;;;5031666;28;20160;-69
2021/05/07 03:01:44;;;;;;;0.40;0.40;;;9.40;71.20;;;;;;5032151;28;20050;-69
2021/05/07 03:04:10;;;;;;;0.30;0.30;;;9.40;71.10;;;;;;5030999;28;20447;-69
2021/05/07 03:06:37;;;;;;;0.50;0.50;;;9.40;71.10;;;;;;5031838;28;20501;-69
2021/05/07 03:09:04;;;;;;;0.30;0.30;;;9.40;71.10;;;;;;5031724;28;20124;-69
2021/05/07 03:11:30;;;;;;;0.28;0.28;;;9.40;71.00;;;;;;5031370;28;20052;-69
2021/05/07 03:13:57;;;;;;;0.20;0.20;;;9.40;71.00;;;;;;5031357;28;20049;-69
2021/05/07 03:16:23;;;;;;;0.60;0.32;;;9.40;70.80;;;;;;5031745;28;20054;-69
2021/05/07 03:18:50;;;;;;;0.30;0.30;;;9.40;70.90;;;;;;5031119;28;20149;-69
2021/05/07 03:21:17;;;;;;;0.28;0.28;;;9.40;70.80;;;;;;5030511;28;20146;-69
2021/05/07 03:23:43;;;;;;;0.30;0.30;;;9.40;70.70;;;;;;5031082;28;20199;-69
2021/05/07 03:26:10;;;;;;;0.20;0.20;;;9.40;70.60;;;;;;5031355;28;20532;-68
2021/05/07 03:28:39;;;;;;;0.20;0.20;;;9.40;70.60;;;;;;5032491;28;20045;-68
2021/05/07 03:31:09;;;;;;;0.45;0.40;;;9.30;70.60;;;;;;5035441;28;20095;-68
2021/05/07 03:33:37;;;;;;;0.30;0.30;;;9.30;70.60;;;;;;5035071;28;20049;-68
2021/05/07 03:36:05;;;;;;;0.30;0.30;;;9.20;70.60;;;;;;5035100;28;20168;-68
2021/05/07 03:38:32;;;;;;;0.25;0.25;;;9.20;70.50;;;;;;5035286;28;20056;-68
2021/05/07 03:40:58;;;;;;;0.20;0.20;;;9.20;70.50;;;;;;5035078;28;20134;-68
2021/05/07 03:43:24;;;;;;;0.20;0.20;;;9.10;70.50;;;;;;5034984;28;20143;-68
2021/05/07 03:45:51;;;;;;;0.20;0.20;;;9.10;70.50;;;;;;5034857;28;20045;-68
2021/05/07 03:48:20;;;;;;;0.22;0.22;;;9.10;70.50;;;;;;5034657;28;20053;-68
2021/05/07 03:50:47;;;;;;;0.35;0.35;;;9.10;70.50;;;;;;5034778;28;20045;-68
2021/05/07 03:53:15;;;;;;;0.30;0.30;;;9.10;70.60;;;;;;5034398;28;20104;-68
2021/05/07 03:55:42;;;;;;;0.20;0.20;;;9.00;70.60;;;;;;5034705;28;20049;-68
2021/05/07 03:58:09;;;;;;;0.20;0.20;;;9.00;70.50;;;;;;5034456;28;20059;-68
2021/05/07 04:00:36;;;;;;;0.20;0.20;;;9.00;70.60;;;;;;5034876;28;20053;-68
2021/05/07 04:03:04;;;;;;;0.50;0.50;;;9.00;70.60;;;;;;5034301;28;20053;-69
2021/05/07 04:05:30;;;;;;;0.30;0.30;;;9.00;70.60;;;;;;5034282;28;20058;-69
2021/05/07 04:08:10;;;;;;;0.30;0.30;;;9.00;71.60;;;;;;5034590;28;20179;-69
2021/05/07 04:10:45;;;;;;;0.30;0.30;;;8.90;70.70;;;;;;5034826;28;20045;-69
2021/05/07 04:15:39;;;;;;;0.30;0.30;;;8.90;70.80;;;;;;5034683;28;20045;-69
2021/05/07 04:18:05;;;;;;;0.63;0.40;;;8.90;70.90;;;;;;5033930;28;20071;-69
2021/05/07 04:20:31;;;;;;;0.50;0.50;;;9.00;70.80;;;;;;5034154;28;20451;-68
2021/05/07 04:22:58;;;;;;;0.32;0.30;;;9.00;70.80;;;;;;5034239;28;20053;-68
2021/05/07 04:25:24;;;;;;;0.30;0.30;;;9.00;70.80;;;;;;5033880;28;20397;-68
2021/05/07 04:27:50;;;;;;;0.40;0.40;;;9.00;70.80;;;;;;5034502;28;20196;-68
2021/05/07 04:30:17;;;;;;;0.30;0.30;;;9.00;70.90;;;;;;5025691;28;20049;-69
2021/05/07 04:32:43;;;;;;;0.30;0.30;;;9.00;70.90;;;;;;5043510;28;20073;-69
2021/05/07 04:35:10;;;;;;;0.65;0.40;;;9.00;70.80;;;;;;5046045;28;20049;-69
2021/05/07 04:37:36;;;;;;;0.50;0.40;;;9.00;70.70;;;;;;5041114;28;20081;-70
2021/05/07 04:40:03;;;;;;;0.30;0.30;;;8.90;70.70;;;;;;5025322;28;20049;-67
2021/05/07 04:42:29;;;;;;;0.28;0.25;;;8.90;70.80;;;;;;5035418;28;20127;-68
2021/05/07 04:44:56;;;;;;;0.40;0.40;;;8.90;70.90;;;;;;5028408;28;20041;-68
2021/05/07 04:47:22;;;;;;;0.40;0.40;;;9.00;70.90;;;;;;5015989;28;20136;-69
2021/05/07 04:49:48;;;;;;;0.30;0.30;;;9.00;70.80;;;;;;5018788;28;20430;-69
2021/05/07 04:52:15;;;;;;;0.30;0.30;;;9.00;70.70;;;;;;5017048;28;20042;-69
2021/05/07 04:54:41;;;;;;;0.35;0.35;;;9.00;70.60;;;;;;5016170;28;20172;-69
2021/05/07 04:57:07;;;;;;;0.52;0.52;;;9.00;70.70;;;;;;5025978;28;20577;-69
2021/05/07 04:59:33;;;;;;;0.40;0.40;;;9.00;71.60;;;;;;5033210;28;20053;-68
2021/05/07 05:02:00;;;;;;;0.47;0.40;;;9.00;70.70;;;;;;5033152;28;20132;-69
2021/05/07 05:04:26;;;;;;;0.40;0.40;;;9.00;70.60;;;;;;5032552;28;20060;-68
2021/05/07 05:06:52;;;;;;;0.35;0.30;;;9.00;70.60;;;;;;5032925;28;20124;-69
2021/05/07 05:09:19;;;;;;;0.40;0.40;;;9.00;70.50;;;;;;5032597;28;20179;-69
2021/05/07 05:11:45;;;;;;;0.30;0.30;;;9.00;70.40;;;;;;5033168;28;20048;-69
2021/05/07 05:14:11;;;;;;;0.50;0.50;;;9.00;70.40;;;;;;5040214;28;20078;-69
2021/05/07 05:16:37;;;;;;;0.50;0.50;;;9.00;70.40;;;;;;5038991;28;20072;-68
2021/05/07 05:19:04;;;;;;;0.40;0.40;;;9.00;70.30;;;;;;5034315;28;20179;-69
2021/05/07 05:21:30;;;;;;;0.60;0.60;;;9.00;70.30;;;;;;5047477;28;20624;-69
2021/05/07 05:23:56;;;;;;;0.43;0.43;;;9.00;70.40;;;;;;5029151;28;20569;-69
2021/05/07 05:26:22;;;;;;;0.50;0.50;;;9.10;70.30;;;;;;5032647;28;20590;-68
2021/05/07 05:28:49;;;;;;;0.40;0.40;;;9.10;70.30;;;;;;5032951;28;20544;-69
2021/05/07 05:31:15;;;;;;;0.65;0.63;;;9.10;70.20;;;;;;5032625;28;20045;-69
2021/05/07 05:33:41;;;;;;;0.60;0.57;;;9.10;70.30;;;;;;5032830;28;20045;-69
2021/05/07 05:36:08;;;;;;;0.70;0.60;;;9.10;70.40;;;;;;5032637;28;20535;-68
2021/05/07 05:38:34;;;;;;;0.90;0.50;;;9.20;70.40;;;;;;5032745;28;20056;-69
2021/05/07 05:41:03;;;;;;;0.40;0.40;;;9.20;70.40;;;;;;5032855;28;20085;-69
2021/05/07 05:43:29;;;;;;;0.32;0.32;;;9.20;70.50;;;;;;5031086;28;20508;-67
2021/05/07 05:45:56;;;;;;;0.73;0.40;;;9.30;70.50;;;;;;5033628;28;20463;-69
2021/05/07 05:48:23;;;;;;;0.55;0.50;;;9.30;70.50;;;;;;5031788;28;20132;-69
2021/05/07 05:50:51;;;;;;;0.40;0.40;;;9.40;70.50;;;;;;5034513;28;20042;-69
2021/05/07 05:53:18;;;;;;;0.52;0.52;;;9.40;70.40;;;;;;5033182;28;20171;-69
2021/05/07 05:55:44;;;;;;;0.73;0.55;;;9.50;70.30;;;;;;5034907;28;20049;-68
2021/05/07 05:58:11;;;;;;;0.50;0.50;;;9.50;70.20;;;;;;5033485;28;20132;-66
2021/05/07 06:00:38;;;;;;;0.50;0.50;;;9.50;70.10;;;;;;5034488;28;20199;-66
2021/05/07 06:03:05;;;;;;;0.63;0.40;;;9.50;70.00;;;;;;5021229;28;20049;-69
2021/05/07 06:05:32;;;;;;;0.47;0.47;;;9.50;69.90;;;;;;5011545;28;20232;-69
2021/05/07 06:07:59;;;;;;;0.40;0.40;;;9.50;70.00;;;;;;5017388;28;20174;-69
2021/05/07 06:10:25;;;;;;;0.40;0.40;;;9.60;70.00;;;;;;5019872;28;20049;-68
2021/05/07 06:12:51;;;;;;;0.55;0.50;;;9.60;70.00;;;;;;5018252;28;20050;-69
2021/05/07 06:15:18;;;;;;;0.45;0.45;;;9.60;69.80;;;;;;5022843;28;20207;-68
2021/05/07 06:17:45;;;;;;;0.40;0.40;;;9.70;69.70;;;;;;5046775;28;20052;-69
2021/05/07 06:20:14;;;;;;;0.43;0.40;;;9.70;69.40;;;;;;5044623;28;20202;-68
2021/05/07 06:22:40;;;;;;;0.50;0.50;;;9.70;69.30;;;;;;5047785;28;20049;-69
2021/05/07 06:25:09;;;;;;;0.52;0.40;;;9.80;69.20;;;;;;5021466;28;20042;-68
2021/05/07 06:27:36;;;;;;;0.57;0.50;;;9.80;69.00;;;;;;5014201;28;20125;-69
2021/05/07 06:30:31;;;;;;;0.50;0.50;;;9.90;68.80;;;;;;5037043;28;20130;-69
2021/05/07 06:33:26;;;;;;;0.60;0.55;;;9.90;68.70;;;;;;5039955;28;20526;-69
2021/05/07 06:35:54;;;;;;;1.00;0.40;;;9.90;68.60;;;;;;5041599;28;20045;-68
2021/05/07 06:38:21;;;;;;;0.93;0.60;;;9.90;68.10;;;;;;5045846;28;20049;-69
2021/05/07 06:40:48;;;;;;;0.47;0.45;;;10.00;68.00;;;;;;5041647;28;20042;-69
2021/05/07 06:43:15;;;;;;;0.40;0.40;;;10.00;68.00;;;;;;5045536;28;20124;-69
2021/05/07 06:45:41;;;;;;;0.70;0.70;;;10.10;67.70;;;;;;5042640;28;20511;-69
2021/05/07 06:48:08;;;;;;;0.82;0.82;;;10.10;67.50;;;;;;5043634;28;20733;-69
2021/05/07 06:50:34;;;;;;;1.05;0.82;;;10.20;67.50;;;;;;5044811;28;20052;-69
2021/05/07 06:53:01;;;;;;;0.90;0.77;;;10.30;67.50;;;;;;5042129;28;20521;-67
2021/05/07 06:55:27;;;;;;;0.60;0.60;;;10.40;67.60;;;;;;5040456;28;20425;-66
2021/05/07 06:57:53;;;;;;;1.10;1.00;;;10.50;67.40;;;;;;5025709;28;20498;-66
2021/05/07 07:00:20;;;;;;;0.90;0.90;;;10.70;67.40;;;;;;5037238;28;20088;-66
2021/05/07 07:02:47;;;;;;;0.55;0.55;;;10.80;67.00;;;;;;5031330;28;20099;-66
2021/05/07 07:05:14;;;;;;;1.02;0.70;;;10.90;66.50;;;;;;5042679;28;20049;-66
2021/05/07 07:07:40;;;;;;;1.38;0.60;;;11.10;67.30;;;;;;5043562;28;20489;-66
2021/05/07 07:10:07;;;;;;;0.50;0.50;;;11.20;66.20;;;;;;5046673;28;20041;-66
2021/05/07 07:12:33;;;;;;;0.50;0.45;;;11.40;65.80;;;;;;5038929;28;20405;-66
2021/05/07 07:15:01;;;;;;;0.47;0.40;;;11.50;65.60;;;;;;5044940;28;20166;-67
2021/05/07 07:17:27;;;;;;;0.30;0.30;;;11.70;65.50;;;;;;5049562;28;20060;-67
2021/05/07 07:19:54;;;;;;;0.30;0.30;;;11.90;64.80;;;;;;5039394;28;20079;-66
2021/05/07 07:22:20;;;;;;;0.30;0.30;;;12.10;64.30;;;;;;5048609;28;20139;-66
2021/05/07 07:24:47;;;;;;;0.30;0.30;;;12.30;63.70;;;;;;5037803;28;20045;-66
2021/05/07 07:27:14;;;;;;;0.30;0.22;;;12.60;62.90;;;;;;5034910;28;20053;-66
2021/05/07 07:29:40;;;;;;;0.52;0.30;;;12.80;62.10;;;;;;5034893;28;20084;-66
2021/05/07 07:32:06;;;;;;;0.60;0.52;;;13.10;61.50;;;;;;5035361;28;20482;-66
2021/05/07 07:34:33;;;;;;;0.63;0.25;;;13.40;61.30;;;;;;5034829;28;20085;-66
2021/05/07 07:36:59;;;;;;;0.70;0.28;;;13.70;60.90;;;;;;5034742;28;20092;-66
2021/05/07 07:39:26;;;;;;;0.75;0.40;;;14.10;60.40;;;;;;5034878;28;20049;-66
2021/05/07 07:41:52;;;;;;;0.40;0.40;;;14.40;59.70;;;;;;5032998;28;20486;-66
2021/05/07 07:44:19;;;;;;;0.20;0.20;;;14.80;58.70;;;;;;5034919;28;20381;-66
2021/05/07 07:46:45;;;;;;;0.30;0.30;;;15.10;57.50;;;;;;5034177;28;20128;-66
2021/05/07 07:49:12;;;;;;;0.20;0.20;;;15.30;56.70;;;;;;5034801;28;20183;-66
2021/05/07 07:51:39;;;;;;;0.30;0.30;;;15.60;56.00;;;;;;5034587;28;20041;-66
2021/05/07 07:54:09;;;;;;;0.30;0.30;;;15.80;55.20;;;;;;5034435;28;20068;-66
2021/05/07 07:56:35;;;;;;;0.43;0.32;;;16.10;54.60;;;;;;5034496;28;20128;-66
2021/05/07 07:59:02;;;;;;;0.47;0.30;;;16.50;53.80;;;;;;5034598;28;20049;-66
2021/05/07 08:01:28;;;;;;;1.35;0.50;;;16.90;54.60;;;;;;5034360;28;20053;-66
2021/05/07 08:03:55;;;;;;;0.20;0.20;;;17.30;52.80;;;;;;5034570;28;20528;-66
2021/05/07 08:06:22;;;;;;;0.25;0.25;;;17.60;50.50;;;;;;5034272;28;20054;-66
2021/05/07 08:08:49;;;;;;;0.40;0.40;;;17.90;49.30;;;;;;5034287;28;20044;-66
2021/05/07 08:11:16;;;;;;;0.25;0.20;;;18.20;48.80;;;;;;5033853;28;20046;-66
2021/05/07 08:13:43;;;;;;;0.40;0.35;;;18.50;48.60;;;;;;5034157;28;20279;-65
2021/05/07 08:16:10;;;;;;;0.20;0.20;;;18.80;47.90;;;;;;5034113;28;20088;-66
2021/05/07 08:18:36;;;;;;;0.10;0.10;;;19.00;47.40;;;;;;5033968;28;20076;-66
2021/05/07 08:21:03;;;;;;;0.57;0.40;;;19.20;47.20;;;;;;5034324;28;20053;-66
2021/05/07 08:23:30;;;;;;;1.00;0.35;;;19.30;46.40;;;;;;5034079;28;20085;-66
2021/05/07 08:25:56;;;;;;;0.40;0.40;;;19.40;45.80;;;;;;5034029;28;20128;-66
2021/05/07 08:28:22;;;;;;;1.05;0.40;;;19.50;45.50;;;;;;5033922;28;20128;-66
2021/05/07 08:30:48;;;;;;;0.38;0.30;;;19.60;45.10;;;;;;5033715;28;20609;-66
2021/05/07 08:33:15;;;;;;;0.20;0.20;;;19.60;45.00;;;;;;5033896;28;20406;-66
2021/05/07 08:35:41;;;;;;;0.47;0.40;;;19.70;44.60;;;;;;5033542;28;20420;-67
2021/05/07 08:38:08;;;;;;;0.65;0.38;;;19.80;44.70;;;;;;5034040;28;20094;-66
2021/05/07 08:40:35;;;;;;;1.17;0.30;;;19.90;44.10;;;;;;5033047;28;20527;-66
2021/05/07 08:43:01;;;;;;;0.82;0.50;;;19.90;43.70;;;;;;5034021;28;20045;-66
2021/05/07 08:45:28;;;;;;;0.30;0.30;;;19.70;41.50;;;;;;5033588;28;20053;-66
2021/05/07 08:47:54;;;;;;;0.80;0.50;;;19.30;41.80;;;;;;5033311;28;20429;-65
2021/05/07 08:50:21;;;;;;;0.40;0.32;;;19.20;42.50;;;;;;5033831;28;20143;-66
2021/05/07 08:52:47;;;;;;;0.40;0.40;;;19.20;42.10;;;;;;5033245;28;20038;-66
2021/05/07 08:55:14;;;;;;;1.25;0.50;;;19.10;40.70;;;;;;5033736;28;20140;-66
2021/05/07 08:57:40;;;;;;;0.43;0.40;;;18.80;40.90;;;;;;5033517;28;20180;-66
2021/05/07 09:00:09;;;;;;;0.52;0.32;;;18.40;38.20;;;;;;5033491;28;20144;-66
2021/05/07 09:02:36;;;;;;;0.40;0.40;;;17.80;40.50;;;;;;5033152;28;20088;-66
2021/05/07 09:05:03;;;;;;;0.40;0.40;;;17.70;42.10;;;;;;5033029;28;20458;-66
2021/05/07 09:07:29;;;;;;;0.70;0.30;;;17.70;40.10;;;;;;5033143;28;20136;-66
2021/05/07 09:10:01;;;;;;;0.30;0.30;;;17.30;40.80;;;;;;5033276;28;20072;-66
2021/05/07 09:12:33;;;;;;;0.32;0.30;;;17.40;41.60;;;;;;5033347;28;20046;-66
2021/05/07 09:15:00;;;;;;;0.20;0.20;;;17.40;39.80;;;;;;5033230;28;20052;-66
2021/05/07 09:17:29;;;;;;;0.10;0.10;;;17.20;37.70;;;;;;5033303;28;20128;-66
2021/05/07 09:20:21;;;;;;;0.10;0.10;;;16.80;35.60;;;;;;5032607;28;20134;-66
2021/05/07 09:22:47;;;;;;;0.20;0.20;;;16.50;38.30;;;;;;5032357;28;20053;-67
2021/05/07 09:25:18;;;;;;;0.50;0.30;;;16.60;39.50;;;;;;5032189;28;20187;-66
2021/05/07 09:27:45;;;;;;;0.43;0.32;;;16.70;39.20;;;;;;5032614;28;20478;-66
2021/05/07 09:30:20;;;;;;;0.30;0.30;;;16.50;39.30;;;;;;5031402;28;20053;-66
2021/05/07 09:32:51;;;;;;;0.45;0.20;;;16.50;39.60;;;;;;5032898;28;20045;-66
2021/05/07 09:35:18;;;;;;;0.20;0.20;;;16.80;36.90;;;;;;5032598;28;20069;-66
2021/05/07 09:37:44;;;;;;;0.30;0.30;;;16.80;38.00;;;;;;5032806;28;20564;-66
2021/05/07 09:40:19;;;;;;;0.40;0.20;;;17.10;38.80;;;;;;5032896;28;20132;-66
2021/05/07 09:42:47;;;;;;;0.17;0.17;;;17.70;38.50;;;;;;5032490;28;20130;-66
2021/05/07 09:45:22;;;;;;;0.22;0.15;;;17.90;36.90;;;;;;5032176;28;20405;-66
2021/05/07 09:47:49;;;;;;;0.30;0.20;;;17.60;35.60;;;;;;5032685;28;20139;-66
2021/05/07 09:50:19;;;;;;;0.30;0.30;;;17.60;37.10;;;;;;5032737;28;20134;-66
2021/05/07 09:52:50;;;;;;;0.30;0.30;;;17.90;37.60;;;;;;5031945;28;20042;-66
2021/05/07 09:55:22;;;;;;;0.20;0.20;;;18.40;37.40;;;;;;5032494;28;20509;-66
2021/05/07 09:57:49;;;;;;;0.30;0.30;;;18.60;34.80;;;;;;5032212;28;20052;-66
2021/05/07 10:00:16;;;;;;;0.30;0.25;;;17.90;35.90;;;;;;5032383;28;20091;-66
2021/05/07 10:02:42;;;;;;;0.40;0.22;;;17.50;36.40;;;;;;5031796;28;20053;-66
2021/05/07 10:05:09;;;;;;;0.20;0.20;;;17.20;38.00;;;;;;5032179;28;20057;-66
2021/05/07 10:07:35;;;;;;;0.20;0.20;;;17.50;39.20;;;;;;5032296;28;20046;-66
2021/05/07 10:10:11;;;;;;;0.20;0.20;;;17.70;37.70;;;;;;5032111;28;20187;-66
2021/05/07 10:12:43;;;;;;;0.20;0.20;;;17.80;37.80;;;;;;5031717;28;20045;-66
2021/05/07 10:15:10;;;;;;;0.20;0.17;;;18.00;37.50;;;;;;5032356;28;20079;-66
2021/05/07 10:17:47;;;;;;;0.10;0.10;;;18.30;37.30;;;;;;5032213;28;20053;-66
2021/05/07 10:20:50;;;;;;;0.20;0.20;;;18.60;36.80;;;;;;5032096;28;20061;-66
2021/05/07 10:23:21;;;;;;;0.20;0.20;;;18.70;35.40;;;;;;5030627;28;20045;-70
2021/05/07 10:25:57;;;;;;;0.15;0.15;;;18.50;34.90;;;;;;5031842;28;20041;-70
2021/05/07 10:28:25;;;;;;;0.20;0.20;;;18.30;35.00;;;;;;5032081;28;20050;-70
2021/05/07 10:31:06;;;;;;;0.13;0.13;;;18.10;35.30;;;;;;5031688;28;20239;-70
2021/05/07 10:33:33;;;;;;;0.08;0.08;;;18.10;35.80;;;;;;5031743;28;20169;-70
2021/05/07 10:36:00;;;;;;;0.10;0.10;;;18.10;35.70;;;;;;5031579;28;20537;-70
2021/05/07 10:38:27;;;;;;;0.25;0.17;;;17.90;35.00;;;;;;5030028;28;20049;-69
2021/05/07 10:41:08;;;;;;;0.17;0.17;;;17.40;35.90;;;;;;5029987;28;20464;-70
2021/05/07 10:43:45;;;;;;;0.10;0.10;;;17.20;36.70;;;;;;5030132;28;20085;-71
2021/05/07 10:46:22;;;;;;;0.20;0.20;;;17.10;37.30;;;;;;5030294;28;20091;-70
2021/05/07 10:48:57;;;;;;;0.10;0.10;;;17.10;37.50;;;;;;5029964;28;20079;-70
2021/05/07 10:51:25;;;;;;;0.22;0.10;;;17.10;37.20;;;;;;5030541;28;20128;-69
2021/05/07 10:53:52;;;;;;;0.55;0.25;;;17.10;37.60;;;;;;5030201;28;20081;-69
2021/05/07 10:56:20;;;;;;;0.10;0.10;;;17.10;37.40;;;;;;5031278;28;20099;-70
2021/05/07 10:58:47;;;;;;;0.30;0.25;;;17.00;36.90;;;;;;5031177;28;20490;-70
2021/05/07 11:01:34;;;;;;;0.10;0.10;;;16.90;37.10;;;;;;5031342;28;20143;-70
2021/05/07 11:04:09;;;;;;;0.13;0.10;;;16.80;37.60;;;;;;5031402;28;20192;-70
2021/05/07 11:06:38;;;;;;;0.10;0.10;;;16.80;37.30;;;;;;5031419;28;20057;-70
2021/05/07 11:09:20;;;;;;;0.10;0.10;;;16.80;37.10;;;;;;5031747;28;20135;-70
2021/05/07 11:11:48;;;;;;;0.10;0.10;;;16.70;37.30;;;;;;5031693;28;20124;-70
2021/05/07 11:14:19;;;;;;;0.10;0.10;;;16.70;37.10;;;;;;5030816;28;20572;-70
2021/05/07 11:16:47;;;;;;;0.10;0.10;;;16.70;37.60;;;;;;5031163;28;20073;-65
2021/05/07 11:19:43;;;;;;;0.10;0.05;;;16.70;37.40;;;;;;5030569;28;20160;-67
2021/05/07 11:22:09;;;;;;;0.00;0.00;;;16.70;37.50;;;;;;5018068;28;20037;-67
2021/05/07 11:24:39;;;;;;;0.03;0.03;;;16.70;37.80;;;;;;5023018;28;20172;-67
2021/05/07 11:27:24;;;;;;;0.10;0.10;;;16.70;38.30;;;;;;5028613;28;20057;-67
2021/05/07 11:29:52;;;;;;;0.15;0.15;;;16.80;38.30;;;;;;5020769;28;20049;-67
2021/05/07 11:32:22;;;;;;;0.20;0.20;;;16.90;38.60;;;;;;5015704;28;20127;-67
2021/05/07 11:34:57;;;;;;;0.30;0.20;;;16.90;37.70;;;;;;5012927;28;20046;-67
2021/05/07 11:37:25;;;;;;;0.10;0.10;;;16.90;37.70;;;;;;5013546;28;20053;-68
2021/05/07 11:40:08;;;;;;;0.10;0.10;;;16.90;37.80;;;;;;5011976;28;20582;-67
2021/05/07 11:42:39;;;;;;;0.10;0.10;;;16.80;36.80;;;;;;5012058;28;20140;-67
2021/05/07 11:45:24;;;;;;;0.17;0.17;;;16.40;36.10;;;;;;5015141;28;20128;-66
2021/05/07 11:47:51;;;;;;;0.20;0.20;;;16.30;37.80;;;;;;5014879;28;20121;-66
2021/05/07 11:50:19;;;;;;;0.82;0.32;;;16.20;38.50;;;;;;5015466;28;20799;-66
2021/05/07 11:52:47;;;;;;;0.20;0.10;;;16.20;38.70;;;;;;5017259;28;20046;-66
2021/05/07 11:55:19;;;;;;;0.20;0.20;;;16.20;38.40;;;;;;5018052;28;20133;-65
2021/05/07 11:58:00;;;;;;;0.10;0.10;;;16.30;38.70;;;;;;5016056;28;20054;-65
2021/05/07 12:00:27;;;;;;;0.10;0.10;;;16.20;38.70;;;;;;5014964;28;20218;-66
2021/05/07 12:03:10;;;;;;;0.32;0.20;;;16.30;38.90;;;;;;5021427;28;20049;-66
2021/05/07 12:05:42;;;;;;;0.15;0.15;;;16.30;38.70;;;;;;5038473;28;20045;-66
2021/05/07 12:08:09;;;;;;;0.10;0.10;;;16.20;38.60;;;;;;5034030;28;20042;-66
2021/05/07 12:10:41;;;;;;;0.10;0.10;;;16.00;38.40;;;;;;5039955;28;20041;-66
2021/05/07 12:13:09;;;;;;;0.35;0.22;;;15.90;39.00;;;;;;5038512;28;20081;-65
2021/05/07 12:15:43;;;;;;;0.40;0.40;;;15.70;39.10;;;;;;5046531;28;20174;-66
2021/05/07 12:18:16;;;;;;;0.17;0.15;;;15.50;40.00;;;;;;5043252;28;20160;-66
2021/05/07 12:20:45;;;;;;;0.10;0.10;;;15.30;40.20;;;;;;5046092;28;20044;-66
2021/05/07 12:23:12;;;;;;;0.20;0.20;;;15.30;40.30;;;;;;5043828;28;20060;-66
2021/05/07 12:25:43;;;;;;;0.10;0.10;;;15.40;40.70;;;;;;5034152;28;20073;-66
2021/05/07 12:28:18;;;;;;;0.22;0.20;;;15.60;40.80;;;;;;5034147;28;20059;-66
2021/05/07 12:30:47;;;;;;;0.10;0.10;;;15.70;40.70;;;;;;5033525;28;20116;-66
2021/05/07 12:33:17;;;;;;;0.30;0.20;;;15.90;40.20;;;;;;5034053;28;20045;-66
2021/05/07 12:35:46;;;;;;;0.20;0.20;;;15.90;39.60;;;;;;5034141;28;20175;-66
2021/05/07 12:38:19;;;;;;;0.20;0.20;;;16.00;40.00;;;;;;5033814;28;20053;-66
2021/05/07 12:40:46;;;;;;;0.10;0.10;;;16.00;39.30;;;;;;5033813;28;20092;-66
2021/05/07 12:43:12;;;;;;;0.10;0.10;;;16.00;39.40;;;;;;5033699;28;20450;-66
2021/05/07 12:45:39;;;;;;;0.20;0.15;;;16.00;39.30;;;;;;5048240;28;20049;-66
2021/05/07 12:48:06;;;;;;;0.20;0.20;;;16.10;38.60;;;;;;5033715;28;20124;-66
2021/05/07 12:50:32;;;;;;;0.20;0.20;;;16.00;38.00;;;;;;5033403;28;20056;-66
2021/05/07 12:52:58;;;;;;;0.13;0.13;;;15.80;37.50;;;;;;5033589;28;20052;-66
2021/05/07 12:55:25;;;;;;;0.10;0.10;;;15.70;38.70;;;;;;5033524;28;20102;-66
2021/05/07 12:57:51;;;;;;;0.10;0.10;;;15.70;39.10;;;;;;5033297;28;20566;-66
2021/05/07 13:00:17;;;;;;;0.20;0.20;;;15.80;38.90;;;;;;5032428;28;20401;-66